Observation data for Tatum on 08/14/2019      Previous  Date  Next       Current Mesonet Observations  Soil Data  Daily Summary Page  Observations in Plain Language
KTAT 140500Z 08009KT 25/15 A3017 RMK A01 T02540154  RH  056%=      5-min Rain = 0
KTAT 140505Z 08009KT 25/16 A3017 RMK A01 T02530155  RH  057%=      5-min Rain = 0
KTAT 140510Z 07009KT 25/15 A3017 RMK A01 T02520154  RH  057%=      5-min Rain = 0
KTAT 140515Z 07009KT 25/15 A3017 RMK A01 T02520154  RH  057%=      5-min Rain = 0
KTAT 140520Z 07009KT 25/15 A3017 RMK A01 T02520154  RH  057%=      5-min Rain = 0
KTAT 140525Z 07009KT 25/15 A3018 RMK A01 T02510154  RH  057%=      5-min Rain = 0
KTAT 140530Z 07009KT 25/15 A3018 RMK A01 T02500154  RH  058%=      5-min Rain = 0
KTAT 140535Z 07008KT 25/16 A3018 RMK A01 T02490155  RH  058%=      5-min Rain = 0
KTAT 140540Z 07008KT 25/16 A3018 RMK A01 T02480155  RH  059%=      5-min Rain = 0
KTAT 140545Z 07008KT 25/16 A3018 RMK A01 T02460155  RH  059%=      5-min Rain = 0
KTAT 140550Z 07008KT 25/16 A3018 RMK A01 T02460155  RH  060%=      5-min Rain = 0
KTAT 140555Z 07008KT 25/16 A3018 RMK A01 T02450156  RH  060%=      5-min Rain = 0
KTAT 140600Z 07008KT 24/16 A3018 RMK A01 T02440156  RH  060%=      5-min Rain = 0
KTAT 140605Z 07009KT 24/16 A3018 RMK A01 T02440156  RH  060%=      5-min Rain = 0
KTAT 140610Z 08008KT 24/16 A3018 RMK A01 T02430156  RH  061%=      5-min Rain = 0
KTAT 140615Z 08009KT 24/16 A3018 RMK A01 T02420156  RH  061%=      5-min Rain = 0
KTAT 140620Z 08008KT 24/16 A3018 RMK A01 T02420156  RH  062%=      5-min Rain = 0
KTAT 140625Z 07009KT 24/16 A3018 RMK A01 T02410156  RH  062%=      5-min Rain = 0
KTAT 140630Z 07009KT 24/16 A3019 RMK A01 T02420156  RH  062%=      5-min Rain = 0
KTAT 140635Z 07010KT 24/16 A3019 RMK A01 T02420156  RH  062%=      5-min Rain = 0
KTAT 140640Z 08009KT 24/16 A3018 RMK A01 T02410157  RH  062%=      5-min Rain = 0
KTAT 140645Z 09008KT 24/16 A3018 RMK A01 T02400157  RH  062%=      5-min Rain = 0
KTAT 140650Z 10007KT 24/16 A3017 RMK A01 T02370157  RH  064%=      5-min Rain = 0
KTAT 140655Z 10007KT 23/16 A3017 RMK A01 T02330157  RH  065%=      5-min Rain = 0
KTAT 140700Z 09007KT 23/16 A3017 RMK A01 T02320157  RH  066%=      5-min Rain = 0
KTAT 140705Z 09006KT 23/16 A3017 RMK A01 T02290157  RH  067%=      5-min Rain = 0
KTAT 140710Z 09006KT 23/16 A3017 RMK A01 T02270158  RH  068%=      5-min Rain = 0
KTAT 140715Z 09007KT 23/16 A3017 RMK A01 T02250158  RH  069%=      5-min Rain = 0
KTAT 140720Z 10006KT 22/16 A3017 RMK A01 T02230158  RH  070%=      5-min Rain = 0
KTAT 140725Z 11006KT 22/16 A3017 RMK A01 T02220159  RH  070%=      5-min Rain = 0
KTAT 140730Z 10006KT 22/16 A3018 RMK A01 T02220159  RH  071%=      5-min Rain = 0
KTAT 140735Z 09006KT 22/16 A3018 RMK A01 T02210159  RH  071%=      5-min Rain = 0
KTAT 140740Z 08007KT 22/16 A3018 RMK A01 T02200160  RH  072%=      5-min Rain = 0
KTAT 140745Z 09006KT 22/16 A3018 RMK A01 T02190159  RH  072%=      5-min Rain = 0
KTAT 140750Z 08006KT 22/16 A3018 RMK A01 T02170159  RH  073%=      5-min Rain = 0
KTAT 140755Z 08006KT 22/16 A3018 RMK A01 T02150160  RH  074%=      5-min Rain = 0
KTAT 140800Z 08006KT 21/16 A3017 RMK A01 T02140160  RH  075%=      5-min Rain = 0
KTAT 140805Z 08006KT 21/16 A3017 RMK A01 T02120160  RH  076%=      5-min Rain = 0
KTAT 140810Z 08006KT 21/16 A3017 RMK A01 T02110160  RH  076%=      5-min Rain = 0
KTAT 140815Z 07006KT 21/16 A3017 RMK A01 T02100161  RH  077%=      5-min Rain = 0
KTAT 140820Z 07007KT 21/16 A3017 RMK A01 T02120161  RH  076%=      5-min Rain = 0
KTAT 140825Z 07006KT 21/16 A3018 RMK A01 T02140161  RH  075%=      5-min Rain = 0
KTAT 140830Z 07007KT 22/16 A3017 RMK A01 T02170161  RH  074%=      5-min Rain = 0
KTAT 140835Z 07007KT 22/16 A3017 RMK A01 T02190162  RH  073%=      5-min Rain = 0
KTAT 140840Z 08007KT 22/16 A3017 RMK A01 T02190162  RH  073%=      5-min Rain = 0
KTAT 140845Z 08008KT 22/16 A3017 RMK A01 T02190162  RH  074%=      5-min Rain = 0
KTAT 140850Z 08007KT 22/16 A3017 RMK A01 T02170162  RH  074%=      5-min Rain = 0
KTAT 140855Z 09007KT 22/16 A3017 RMK A01 T02160162  RH  075%=      5-min Rain = 0
KTAT 140900Z 08007KT 21/16 A3017 RMK A01 T02140162  RH  076%=      5-min Rain = 0
KTAT 140905Z 07007KT 21/16 A3017 RMK A01 T02140163  RH  076%=      5-min Rain = 0
KTAT 140910Z 07008KT 22/16 A3018 RMK A01 T02160162  RH  075%=      5-min Rain = 0
KTAT 140915Z 06008KT 22/16 A3018 RMK A01 T02170162  RH  074%=      5-min Rain = 0
KTAT 140920Z 06009KT 22/16 A3018 RMK A01 T02170162  RH  074%=      5-min Rain = 0
KTAT 140925Z 06009KT 22/16 A3018 RMK A01 T02170162  RH  075%=      5-min Rain = 0
KTAT 140930Z 06009KT 22/16 A3018 RMK A01 T02170162  RH  075%=      5-min Rain = 0
KTAT 140935Z 06010KT 22/16 A3018 RMK A01 T02170163  RH  075%=      5-min Rain = 0
KTAT 140940Z 06011KT 22/16 A3018 RMK A01 T02170163  RH  075%=      5-min Rain = 0
KTAT 140945Z 06011KT 22/16 A3018 RMK A01 T02170163  RH  075%=      5-min Rain = 0
KTAT 140950Z 07011KT 22/16 A3018 RMK A01 T02180163  RH  075%=      5-min Rain = 0
KTAT 140955Z 07010KT 22/16 A3018 RMK A01 T02170163  RH  075%=      5-min Rain = 0
KTAT 141000Z 07010KT 22/16 A3018 RMK A01 T02170163  RH  075%=      5-min Rain = 0
KTAT 141005Z 07011KT 22/16 A3019 RMK A01 T02160163  RH  075%=      5-min Rain = 0
KTAT 141010Z 07010KT 22/16 A3019 RMK A01 T02160163  RH  076%=      5-min Rain = 0
KTAT 141015Z 07010KT 22/16 A3019 RMK A01 T02150164  RH  076%=      5-min Rain = 0
KTAT 141020Z 06009KT 22/16 A3019 RMK A01 T02150164  RH  076%=      5-min Rain = 0
KTAT 141025Z 07009KT 21/16 A3019 RMK A01 T02140164  RH  077%=      5-min Rain = 0
KTAT 141030Z 06009KT 21/16 A3019 RMK A01 T02140164  RH  077%=      5-min Rain = 0
KTAT 141035Z 07008KT 21/16 A3019 RMK A01 T02140164  RH  077%=      5-min Rain = 0
KTAT 141040Z 06008KT 21/16 A3019 RMK A01 T02120164  RH  078%=      5-min Rain = 0
KTAT 141045Z 06007KT 21/16 A3019 RMK A01 T02110164  RH  078%=      5-min Rain = 0
KTAT 141050Z 05007KT 21/16 A3019 RMK A01 T02100164  RH  079%=      5-min Rain = 0
KTAT 141055Z 05007KT 21/16 A3019 RMK A01 T02090163  RH  079%=      5-min Rain = 0
KTAT 141100Z 06008KT 21/16 A3019 RMK A01 T02090163  RH  079%=      5-min Rain = 0
KTAT 141105Z 06008KT 21/16 A3019 RMK A01 T02090163  RH  079%=      5-min Rain = 0
KTAT 141110Z 05008KT 21/16 A302 RMK A01 T02080162  RH  079%=      5-min Rain = 0
KTAT 141115Z 05008KT 21/16 A302 RMK A01 T02070162  RH  079%=      5-min Rain = 0
KTAT 141120Z 05009KT 21/16 A302 RMK A01 T02070163  RH  079%=      5-min Rain = 0
KTAT 141125Z 05009KT 21/16 A302 RMK A01 T02070163  RH  080%=      5-min Rain = 0
KTAT 141130Z 05009KT 21/16 A302 RMK A01 T02080164  RH  080%=      5-min Rain = 0
KTAT 141135Z 05010KT 21/16 A3021 RMK A01 T02090164  RH  079%=      5-min Rain = 0
KTAT 141140Z 06011KT 21/16 A3021 RMK A01 T02090164  RH  079%=      5-min Rain = 0
KTAT 141145Z 06011KT 21/16 A302 RMK A01 T02090164  RH  079%=      5-min Rain = 0
KTAT 141150Z 06012KT 21/16 A3021 RMK A01 T02090164  RH  079%=      5-min Rain = 0
KTAT 141155Z 06012KT 21/16 A302 RMK A01 T02080163  RH  079%=      5-min Rain = 0
KTAT 141200Z 06012KT 21/16 A3021 RMK A01 T02070163  RH  080%=      5-min Rain = 0
KTAT 141205Z 06012KT 21/16 A3021 RMK A01 T02070163  RH  080%=      5-min Rain = 0
KTAT 141210Z 06013KT 21/16 A3022 RMK A01 T02080163  RH  079%=      5-min Rain = 0
KTAT 141215Z 06011KT 21/16 A3022 RMK A01 T02070163  RH  079%=      5-min Rain = 0
KTAT 141220Z 06012KT 21/16 A3022 RMK A01 T02080163  RH  079%=      5-min Rain = 0
KTAT 141225Z 05012KT 21/16 A3022 RMK A01 T02100164  RH  079%=      5-min Rain = 0
KTAT 141230Z 05014G19KT 21/16 A3022 RMK A01 T02120164  RH  078%=      5-min Rain = 0
KTAT 141235Z 06016KT 21/16 A3022 RMK A01 T02140164  RH  077%=      5-min Rain = 0
KTAT 141240Z 05018G23KT 21/16 A3023 RMK A01 T02130164  RH  077%=      5-min Rain = 0
KTAT 141245Z 05018KT 21/16 A3023 RMK A01 T02130164  RH  077%=      5-min Rain = 0
KTAT 141250Z 05015G20KT 21/16 A3023 RMK A01 T02130164  RH  077%=      5-min Rain = 0
KTAT 141255Z 05017G24KT 21/16 A3024 RMK A01 T02130164  RH  077%=      5-min Rain = 0
KTAT 141300Z 05016G23KT 21/16 A3024 RMK A01 T02130164  RH  077%=      5-min Rain = 0
KTAT 141305Z 05017G23KT 21/16 A3025 RMK A01 T02130164  RH  077%=      5-min Rain = 0
KTAT 141310Z 05018G25KT 21/16 A3025 RMK A01 T02120164  RH  078%=      5-min Rain = 0
KTAT 141315Z 05018G24KT 21/16 A3026 RMK A01 T02120164  RH  078%=      5-min Rain = 0
KTAT 141320Z 05017G22KT 21/16 A3026 RMK A01 T02120163  RH  077%=      5-min Rain = 0
KTAT 141325Z 05017KT 21/16 A3026 RMK A01 T02120163  RH  078%=      5-min Rain = 0
KTAT 141330Z 04017G24KT 21/16 A3027 RMK A01 T02130164  RH  077%=      5-min Rain = 0
KTAT 141335Z 04018G24KT 21/16 A3027 RMK A01 T02120162  RH  077%=      5-min Rain = 0
KTAT 141340Z 05021KT 21/16 A3028 RMK A01 T02130159  RH  075%=      5-min Rain = 0
KTAT 141345Z 04021G27KT 21/16 A3029 RMK A01 T02140158  RH  074%=      5-min Rain = 0
KTAT 141350Z 04018G23KT 22/16 A3029 RMK A01 T02150158  RH  074%=      5-min Rain = 0
KTAT 141355Z 04021G26KT 21/15 A3029 RMK A01 T02110152  RH  072%=      5-min Rain = 0
KTAT 141400Z 04020G25KT 21/15 A303 RMK A01 T02100150  RH  072%=      5-min Rain = 0
KTAT 141405Z 04019KT 21/15 A303 RMK A01 T02100148  RH  071%=      5-min Rain = 0
KTAT 141410Z 04020G26KT 21/15 A303 RMK A01 T02100146  RH  070%=      5-min Rain = 0
KTAT 141415Z 04020KT 21/15 A3031 RMK A01 T02120146  RH  069%=      5-min Rain = 0
KTAT 141420Z 04019G24KT 22/15 A3031 RMK A01 T02150146  RH  067%=      5-min Rain = 0
KTAT 141425Z 05022G28KT 22/15 A3031 RMK A01 T02210147  RH  066%=      5-min Rain = 0
KTAT 141430Z 05021G27KT 22/15 A3031 RMK A01 T02240146  RH  064%=      5-min Rain = 0
KTAT 141435Z 05020G25KT 22/15 A3031 RMK A01 T02240145  RH  064%=      5-min Rain = 0
KTAT 141440Z 05020KT 22/15 A3031 RMK A01 T02240146  RH  064%=      5-min Rain = 0
KTAT 141445Z 04020KT 23/15 A3032 RMK A01 T02260147  RH  064%=      5-min Rain = 0
KTAT 141450Z 04018KT 23/15 A3032 RMK A01 T02270148  RH  064%=      5-min Rain = 0
KTAT 141455Z 04018KT 23/15 A3032 RMK A01 T02290149  RH  063%=      5-min Rain = 0
KTAT 141500Z 04017G23KT 23/15 A3032 RMK A01 T02270149  RH  064%=      5-min Rain = 0
KTAT 141505Z 04017G22KT 23/15 A3032 RMK A01 T02250147  RH  064%=      5-min Rain = 0
KTAT 141510Z 02022G29KT 22/14 A3033 RMK A01 T02220143  RH  063%=      5-min Rain = 0
KTAT 141515Z 02016G23KT 21/14 A3033 RMK A01 T02130138  RH  065%=      5-min Rain = 0
KTAT 141520Z 03016KT 22/14 A3032 RMK A01 T02190139  RH  063%=      5-min Rain = 0
KTAT 141525Z 03018G24KT 22/14 A3033 RMK A01 T02240139  RH  061%=      5-min Rain = 0
KTAT 141530Z 03017G22KT 22/14 A3032 RMK A01 T02230136  RH  060%=      5-min Rain = 0
KTAT 141535Z 03016G22KT 23/14 A3032 RMK A01 T02260137  RH  059%=      5-min Rain = 0
KTAT 141540Z 04016G22KT 23/14 A3032 RMK A01 T02290136  RH  058%=      5-min Rain = 0
KTAT 141545Z 04017G22KT 24/14 A3032 RMK A01 T02360137  RH  056%=      5-min Rain = 0
KTAT 141550Z 04016G22KT 24/14 A3031 RMK A01 T02400136  RH  055%=      5-min Rain = 0
KTAT 141555Z 04017G23KT 24/14 A3031 RMK A01 T02410136  RH  054%=      5-min Rain = 0
KTAT 141600Z 05017G24KT 24/13 A303 RMK A01 T02430134  RH  053%=      5-min Rain = 0
KTAT 141605Z 05016G22KT 25/13 A3029 RMK A01 T02520133  RH  050%=      5-min Rain = 0
KTAT 141610Z 06017G23KT 26/13 A3029 RMK A01 T02600130  RH  046%=      5-min Rain = 0
KTAT 141615Z 06019G26KT 26/12 A3028 RMK A01 T02640122  RH  043%=      5-min Rain = 0
KTAT 141620Z 06017G23KT 26/12 A3028 RMK A01 T02580116  RH  043%=      5-min Rain = 0
KTAT 141625Z 06019KT 27/11 A3027 RMK A01 T02650111  RH  040%=      5-min Rain = 0
KTAT 141630Z 07017G22KT 28/11 A3027 RMK A01 T02760111  RH  037%=      5-min Rain = 0
KTAT 141635Z 08016G21KT 28/11 A3026 RMK A01 T02830110  RH  035%=      5-min Rain = 0
KTAT 141640Z 07015G21KT 29/11 A3026 RMK A01 T02910109  RH  033%=      5-min Rain = 0
KTAT 141645Z 07015KT 30/11 A3026 RMK A01 T02950105  RH  032%=      5-min Rain = 0
KTAT 141650Z 08016G21KT 30/11 A3026 RMK A01 T02980108  RH  032%=      5-min Rain = 0
KTAT 141655Z 09015KT 30/11 A3025 RMK A01 T03040110  RH  031%=      5-min Rain = 0
KTAT 141700Z 09015G20KT 31/11 A3026 RMK A01 T03070111  RH  031%=      5-min Rain = 0
KTAT 141705Z 08014KT 31/11 A3026 RMK A01 T03080110  RH  031%=      5-min Rain = 0
KTAT 141710Z 09016G21KT 31/11 A3025 RMK A01 T03070106  RH  030%=      5-min Rain = 0
KTAT 141715Z 09015G20KT 31/11 A3025 RMK A01 T03060107  RH  030%=      5-min Rain = 0
KTAT 141720Z 09014G20KT 31/11 A3025 RMK A01 T03110106  RH  029%=      5-min Rain = 0
KTAT 141725Z 09014KT 31/11 A3026 RMK A01 T03120106  RH  029%=      5-min Rain = 0
KTAT 141730Z 10013G19KT 30/10 A3026 RMK A01 T03020104  RH  030%=      5-min Rain = 0
KTAT 141735Z 10014KT 30/11 A3026 RMK A01 T02950105  RH  032%=      5-min Rain = 0
KTAT 141740Z 10013KT 30/11 A3026 RMK A01 T02970108  RH  032%=      5-min Rain = 0
KTAT 141745Z 11012KT 30/11 A3026 RMK A01 T03040110  RH  031%=      5-min Rain = 0
KTAT 141750Z 10011KT 31/11 A3025 RMK A01 T03130108  RH  029%=      5-min Rain = 0
KTAT 141755Z 10011KT 31/11 A3025 RMK A01 T03110107  RH  029%=      5-min Rain = 0
KTAT 141800Z 11011KT 31/10 A3025 RMK A01 T03090103  RH  029%=      5-min Rain = 0
KTAT 141805Z 11008KT 32/11 A3025 RMK A01 T03180108  RH  028%=      5-min Rain = 0
KTAT 141810Z 12009KT 32/11 A3024 RMK A01 T03180106  RH  028%=      5-min Rain = 0
KTAT 141815Z 12009G14KT 31/11 A3024 RMK A01 T03130106  RH  029%=      5-min Rain = 0
KTAT 141820Z 12009G14KT 31/11 A3024 RMK A01 T03090108  RH  030%=      5-min Rain = 0
KTAT 141825Z 10006G14KT 32/11 A3024 RMK A01 T03170108  RH  029%=      5-min Rain = 0
KTAT 141830Z 09006G13KT 32/11 A3024 RMK A01 T03170107  RH  029%=      5-min Rain = 0
KTAT 141835Z 10007G13KT 32/11 A3025 RMK A01 T03150108  RH  029%=      5-min Rain = 0
KTAT 141840Z 08008KT 32/11 A3025 RMK A01 T03190109  RH  028%=      5-min Rain = 0
KTAT 141845Z 10008KT 33/11 A3025 RMK A01 T03330108  RH  026%=      5-min Rain = 0
KTAT 141850Z 10008KT 33/11 A3024 RMK A01 T03330105  RH  026%=      5-min Rain = 0
KTAT 141855Z 10008KT 33/11 A3024 RMK A01 T03320105  RH  026%=      5-min Rain = 0
KTAT 141900Z 07006G12KT 33/10 A3024 RMK A01 T03340104  RH  025%=      5-min Rain = 0
KTAT 141905Z 10008KT 33/11 A3024 RMK A01 T03320105  RH  026%=      5-min Rain = 0
KTAT 141910Z 05010G15KT 33/10 A3024 RMK A01 T03340101  RH  025%=      5-min Rain = 0
KTAT 141915Z 07008G16KT 33/11 A3024 RMK A01 T03310106  RH  026%=      5-min Rain = 0
KTAT 141920Z 08010G16KT 34/10 A3024 RMK A01 T03420102  RH  024%=      5-min Rain = 0
KTAT 141925Z 09007G12KT 34/10 A3024 RMK A01 T03380102  RH  024%=      5-min Rain = 0
KTAT 141930Z 05011KT 34/10 A3023 RMK A01 T03360099  RH  024%=      5-min Rain = 0
KTAT 141935Z 07010G15KT 34/10 A3023 RMK A01 T03370099  RH  024%=      5-min Rain = 0
KTAT 141940Z 06009KT 34/10 A3023 RMK A01 T03360096  RH  024%=      5-min Rain = 0
KTAT 141945Z 08008G13KT 34/10 A3023 RMK A01 T03440095  RH  023%=      5-min Rain = 0
KTAT 141950Z 09006G11KT 34/10 A3023 RMK A01 T03370097  RH  024%=      5-min Rain = 0
KTAT 141955Z 10008KT 34/10 A3022 RMK A01 T03420101  RH  024%=      5-min Rain = 0
KTAT 142000Z 10008KT 35/10 A3022 RMK A01 T03540101  RH  022%=      5-min Rain = 0
KTAT 142005Z 08009KT 35/10 A3022 RMK A01 T03520099  RH  022%=      5-min Rain = 0
KTAT 142010Z 11002KT 35/09 A3021 RMK A01 T03480093  RH  022%=      5-min Rain = 0
KTAT 142015Z 06008G16KT 35/10 A3021 RMK A01 T03470095  RH  022%=      5-min Rain = 0
KTAT 142020Z 06010G15KT 35/08 A3021 RMK A01 T03510083  RH  020%=      5-min Rain = 0
KTAT 142025Z 06007KT 34/08 A302 RMK A01 T03440084  RH  021%=      5-min Rain = 0
KTAT 142030Z 03004KT 34/09 A302 RMK A01 T03430085  RH  021%=      5-min Rain = 0
KTAT 142035Z 34005G10KT 34/09 A3019 RMK A01 T03350086  RH  022%=      5-min Rain = 0
KTAT 142040Z 02005G12KT 34/09 A3019 RMK A01 T03380085  RH  022%=      5-min Rain = 0
KTAT 142045Z 05006G11KT 34/07 A3019 RMK A01 T03440074  RH  019%=      5-min Rain = 0
KTAT 142050Z 08010KT 35/08 A3018 RMK A01 T03510078  RH  019%=      5-min Rain = 0
KTAT 142055Z 10004G10KT 35/07 A3018 RMK A01 T03510072  RH  018%=      5-min Rain = 0
KTAT 142100Z 30003KT 34/08 A3018 RMK A01 T03380075  RH  020%=      5-min Rain = 0
KTAT 142105Z 08004G12KT 34/08 A3017 RMK A01 T03370078  RH  021%=      5-min Rain = 0
KTAT 142110Z 08010KT 36/08 A3017 RMK A01 T03550076  RH  019%=      5-min Rain = 0
KTAT 142115Z 09006G11KT 36/07 A3017 RMK A01 T03590068  RH  017%=      5-min Rain = 0
KTAT 142120Z 08005KT 36/07 A3017 RMK A01 T03570072  RH  018%=      5-min Rain = 0
KTAT 142125Z 07009G15KT 36/08 A3016 RMK A01 T03550078  RH  019%=      5-min Rain = 0
KTAT 142130Z 07010KT 35/08 A3016 RMK A01 T03540080  RH  019%=      5-min Rain = 0
KTAT 142135Z 10008G13KT 36/08 A3016 RMK A01 T03570079  RH  019%=      5-min Rain = 0
KTAT 142140Z 14007G12KT 35/08 A3016 RMK A01 T03540079  RH  019%=      5-min Rain = 0
KTAT 142145Z 08007KT 35/08 A3016 RMK A01 T03540079  RH  019%=      5-min Rain = 0
KTAT 142150Z 05008G14KT 35/08 A3015 RMK A01 T03490075  RH  019%=      5-min Rain = 0
KTAT 142155Z 07005KT 35/08 A3015 RMK A01 T03460076  RH  019%=      5-min Rain = 0
KTAT 142200Z 07009G15KT 35/07 A3015 RMK A01 T03470073  RH  019%=      5-min Rain = 0
KTAT 142205Z 10009KT 36/06 A3015 RMK A01 T03550064  RH  017%=      5-min Rain = 0
KTAT 142210Z 10008G14KT 35/06 A3015 RMK A01 T03540064  RH  017%=      5-min Rain = 0
KTAT 142215Z 08008G13KT 36/06 A3015 RMK A01 T03560062  RH  017%=      5-min Rain = 0
KTAT 142220Z 08006KT 35/06 A3014 RMK A01 T03540062  RH  017%=      5-min Rain = 0
KTAT 142225Z 06007KT 36/06 A3014 RMK A01 T03550060  RH  017%=      5-min Rain = 0
KTAT 142230Z 07006G11KT 35/06 A3014 RMK A01 T03520060  RH  017%=      5-min Rain = 0
KTAT 142235Z 10008G13KT 35/06 A3014 RMK A01 T03450063  RH  018%=      5-min Rain = 0
KTAT 142240Z 06008KT 35/06 A3014 RMK A01 T03510060  RH  017%=      5-min Rain = 0
KTAT 142245Z 09007G14KT 35/06 A3014 RMK A01 T03530062  RH  017%=      5-min Rain = 0
KTAT 142250Z 10013G18KT 35/06 A3013 RMK A01 T03540064  RH  017%=      5-min Rain = 0
KTAT 142255Z 10010KT 35/07 A3013 RMK A01 T03520067  RH  018%=      5-min Rain = 0
KTAT 142300Z 12012KT 35/07 A3013 RMK A01 T03480067  RH  018%=      5-min Rain = 0
KTAT 142305Z 13009KT 34/07 A3013 RMK A01 T03440071  RH  019%=      5-min Rain = 0
KTAT 142310Z 13008KT 34/07 A3013 RMK A01 T03420069  RH  019%=      5-min Rain = 0
KTAT 142315Z 10005KT 35/07 A3013 RMK A01 T03480070  RH  018%=      5-min Rain = 0
KTAT 142320Z 10009KT 35/07 A3013 RMK A01 T03510070  RH  018%=      5-min Rain = 0
KTAT 142325Z 08010KT 35/07 A3013 RMK A01 T03500068  RH  018%=      5-min Rain = 0
KTAT 142330Z 09009G15KT 35/07 A3013 RMK A01 T03480069  RH  018%=      5-min Rain = 0
KTAT 142335Z 09006G13KT 35/07 A3013 RMK A01 T03460071  RH  019%=      5-min Rain = 0
KTAT 142340Z 10012KT 34/08 A3013 RMK A01 T03440076  RH  020%=      5-min Rain = 0
KTAT 142345Z 11008G14KT 34/08 A3013 RMK A01 T03420075  RH  020%=      5-min Rain = 0
KTAT 142350Z 11009G14KT 34/08 A3013 RMK A01 T03370075  RH  020%=      5-min Rain = 0
KTAT 142355Z 12010G15KT 33/08 A3014 RMK A01 T03270075  RH  022%=      5-min Rain = 0
KTAT 150000Z 13009G14KT 32/08 A3014 RMK A01 T03210075  RH  022%=      5-min Rain = 0
KTAT 150005Z 12006KT 33/08 A3014 RMK A01 T03280077  RH  022%=      5-min Rain = 0
KTAT 150010Z 10010KT 33/08 A3014 RMK A01 T03320078  RH  021%=      5-min Rain = 0
KTAT 150015Z 10010KT 33/08 A3014 RMK A01 T03340078  RH  021%=      5-min Rain = 0
KTAT 150020Z 10010KT 34/08 A3014 RMK A01 T03370076  RH  021%=      5-min Rain = 0
KTAT 150025Z 09009KT 34/08 A3014 RMK A01 T03370075  RH  020%=      5-min Rain = 0
KTAT 150030Z 09007KT 33/07 A3014 RMK A01 T03320074  RH  021%=      5-min Rain = 0
KTAT 150035Z 10007KT 32/08 A3014 RMK A01 T03230076  RH  022%=      5-min Rain = 0
KTAT 150040Z 09008KT 32/08 A3014 RMK A01 T03170079  RH  023%=      5-min Rain = 0
KTAT 150045Z 11008KT 31/08 A3014 RMK A01 T03130079  RH  024%=      5-min Rain = 0
KTAT 150050Z 10007KT 31/08 A3014 RMK A01 T03130081  RH  024%=      5-min Rain = 0
KTAT 150055Z 09007KT 31/08 A3015 RMK A01 T03140081  RH  024%=      5-min Rain = 0
KTAT 150100Z 10008KT 31/08 A3015 RMK A01 T03120079  RH  024%=      5-min Rain = 0
KTAT 150105Z 11008KT 31/08 A3015 RMK A01 T03100080  RH  025%=      5-min Rain = 0
KTAT 150110Z 10008KT 31/08 A3015 RMK A01 T03090081  RH  025%=      5-min Rain = 0
KTAT 150115Z 10008KT 31/08 A3015 RMK A01 T03090081  RH  025%=      5-min Rain = 0
KTAT 150120Z 10008KT 30/08 A3015 RMK A01 T03030082  RH  026%=      5-min Rain = 0
KTAT 150125Z 10007KT 30/08 A3016 RMK A01 T02970084  RH  027%=      5-min Rain = 0
KTAT 150130Z 11006KT 29/09 A3016 RMK A01 T02920085  RH  028%=      5-min Rain = 0
KTAT 150135Z 11007KT 29/09 A3016 RMK A01 T02860086  RH  029%=      5-min Rain = 0
KTAT 150140Z 11006KT 28/09 A3016 RMK A01 T02830087  RH  030%=      5-min Rain = 0
KTAT 150145Z 11006KT 28/09 A3017 RMK A01 T02780088  RH  031%=      5-min Rain = 0
KTAT 150150Z 11006KT 27/09 A3017 RMK A01 T02720089  RH  033%=      5-min Rain = 0
KTAT 150155Z 11006KT 27/09 A3017 RMK A01 T02700089  RH  033%=      5-min Rain = 0
KTAT 150200Z 11007KT 27/09 A3017 RMK A01 T02700089  RH  033%=      5-min Rain = 0
KTAT 150205Z 11007KT 27/09 A3018 RMK A01 T02690089  RH  033%=      5-min Rain = 0
KTAT 150210Z 11007KT 27/09 A3018 RMK A01 T02680089  RH  033%=      5-min Rain = 0
KTAT 150215Z 11008KT 27/09 A3018 RMK A01 T02690088  RH  033%=      5-min Rain = 0
KTAT 150220Z 12008KT 27/09 A3018 RMK A01 T02710087  RH  032%=      5-min Rain = 0
KTAT 150225Z 12008KT 27/09 A3018 RMK A01 T02690087  RH  033%=      5-min Rain = 0
KTAT 150230Z 12008KT 26/09 A3018 RMK A01 T02630088  RH  034%=      5-min Rain = 0
KTAT 150235Z 12008KT 26/09 A3018 RMK A01 T02590088  RH  035%=      5-min Rain = 0
KTAT 150240Z 12008KT 26/09 A3018 RMK A01 T02590087  RH  035%=      5-min Rain = 0
KTAT 150245Z 13008KT 26/09 A3018 RMK A01 T02600087  RH  034%=      5-min Rain = 0
KTAT 150250Z 12008KT 26/09 A3018 RMK A01 T02590087  RH  035%=      5-min Rain = 0
KTAT 150255Z 12009KT 26/09 A3018 RMK A01 T02590086  RH  034%=      5-min Rain = 0
KTAT 150300Z 12008KT 26/09 A3018 RMK A01 T02590085  RH  034%=      5-min Rain = 0
KTAT 150305Z 12008KT 26/09 A3019 RMK A01 T02580085  RH  034%=      5-min Rain = 0
KTAT 150310Z 12008KT 26/08 A3019 RMK A01 T02570084  RH  034%=      5-min Rain = 0
KTAT 150315Z 12008KT 26/08 A3019 RMK A01 T02570084  RH  034%=      5-min Rain = 0
KTAT 150320Z 12008KT 26/08 A3019 RMK A01 T02580083  RH  034%=      5-min Rain = 0
KTAT 150325Z 11008KT 26/08 A302 RMK A01 T02570083  RH  034%=      5-min Rain = 0
KTAT 150330Z 10008KT 26/08 A302 RMK A01 T02560084  RH  035%=      5-min Rain = 0
KTAT 150335Z 10008KT 26/09 A302 RMK A01 T02550085  RH  035%=      5-min Rain = 0
KTAT 150340Z 10008KT 26/09 A302 RMK A01 T02560085  RH  035%=      5-min Rain = 0
KTAT 150345Z 11008KT 26/09 A302 RMK A01 T02580086  RH  035%=      5-min Rain = 0
KTAT 150350Z 11008KT 26/09 A3019 RMK A01 T02590086  RH  034%=      5-min Rain = 0
KTAT 150355Z 11008KT 26/09 A3019 RMK A01 T02600086  RH  034%=      5-min Rain = 0
KTAT 150400Z 11007KT 26/09 A302 RMK A01 T02590087  RH  035%=      5-min Rain = 0
KTAT 150405Z 11007KT 26/09 A302 RMK A01 T02580087  RH  035%=      5-min Rain = 0
KTAT 150410Z 11008KT 26/09 A302 RMK A01 T02580087  RH  035%=      5-min Rain = 0
KTAT 150415Z 11008KT 26/09 A302 RMK A01 T02590087  RH  035%=      5-min Rain = 0
KTAT 150420Z 11009KT 26/09 A302 RMK A01 T02610087  RH  034%=      5-min Rain = 0
KTAT 150425Z 10009KT 26/09 A302 RMK A01 T02610087  RH  034%=      5-min Rain = 0
KTAT 150430Z 10008KT 26/09 A3021 RMK A01 T02590088  RH  035%=      5-min Rain = 0
KTAT 150435Z 10007KT 26/09 A3021 RMK A01 T02580089  RH  035%=      5-min Rain = 0
KTAT 150440Z 07006KT 26/09 A3022 RMK A01 T02580090  RH  036%=      5-min Rain = 0
KTAT 150445Z 35015G22KT 25/11 A3024 RMK A01 T02540106  RH  041%=      5-min Rain = 0
KTAT 150450Z 32017G22KT 24/12 A3025 RMK A01 T02380119  RH  049%=      5-min Rain = 0
KTAT 150455Z 32018G25KT 23/12 A3025 RMK A01 T02310122  RH  052%=      5-min Rain = 0

Page generated in 0.0097 seconds.